createdAt,value
2022-11-17T00:00:47.100Z,97451.47
2022-11-17T00:03:23.261Z,97423.53
2022-11-17T00:09:28.119Z,97411.59
2022-11-17T00:11:59.163Z,97406.38
2022-11-17T00:14:40.518Z,97394.59
2022-11-17T00:17:17.333Z,97373.28
2022-11-17T00:19:59.830Z,97355.41
2022-11-17T00:23:03.144Z,97355.41
2022-11-17T00:25:48.708Z,97352.34
2022-11-17T00:38:55.486Z,97325.94
2022-11-17T00:41:30.188Z,97322.03
2022-11-17T00:44:44.435Z,97329.88
2022-11-17T00:50:42.271Z,97303.47
2022-11-17T00:53:47.627Z,97292.72
2022-11-17T00:56:45.664Z,97300.56
2022-11-17T01:00:16.646Z,97283.38
2022-11-17T01:05:39.536Z,97271.38
2022-11-17T01:08:22.744Z,97267.53
2022-11-17T01:11:42.231Z,97274.00
2022-11-17T01:14:40.361Z,97263.94
2022-11-17T01:17:35.879Z,97241.31
2022-11-17T01:20:20.287Z,97236.88
2022-11-17T01:22:58.398Z,97251.38
2022-11-17T01:25:56.377Z,97246.06
2022-11-17T01:31:37.883Z,97233.97
2022-11-17T01:34:18.585Z,97232.41
2022-11-17T01:40:31.915Z,97222.59
2022-11-17T01:46:33.090Z,97200.44
2022-11-17T01:49:29.097Z,97182.19
2022-11-17T01:52:03.131Z,97170.47
2022-11-17T01:54:42.877Z,97168.44
2022-11-17T01:57:19.124Z,97159.91
2022-11-17T02:00:20.636Z,97158.19
2022-11-17T02:02:55.285Z,97153.09
2022-11-17T02:09:39.666Z,97146.63
2022-11-17T02:12:37.592Z,97134.00
2022-11-17T02:15:13.348Z,97132.13
2022-11-17T02:18:04.563Z,97129.44
2022-11-17T02:20:48.200Z,97132.66
2022-11-17T02:23:50.362Z,97131.50
2022-11-17T02:26:55.561Z,97134.06
2022-11-17T02:29:36.605Z,97126.91
2022-11-17T02:32:18.668Z,97117.34
2022-11-17T02:34:57.202Z,97122.97
2022-11-17T02:37:31.873Z,97119.03
2022-11-17T02:40:03.274Z,97128.63
2022-11-17T02:42:37.702Z,97109.00
2022-11-17T02:45:21.980Z,97102.53
2022-11-17T02:47:54.769Z,97111.59
2022-11-17T02:50:28.491Z,97096.94
2022-11-17T02:53:00.247Z,97101.84
2022-11-17T02:55:31.171Z,97106.63
2022-11-17T02:58:12.255Z,97112.09
2022-11-17T03:01:00.682Z,97106.63
2022-11-17T03:03:58.698Z,97091.66
2022-11-17T03:06:33.823Z,97087.22
2022-11-17T03:09:13.127Z,97075.84
2022-11-17T03:11:50.755Z,97087.91
2022-11-17T03:14:27.642Z,97078.72
2022-11-17T03:17:13.941Z,97076.19
2022-11-17T03:19:47.805Z,97068.84
2022-11-17T03:22:33.406Z,97059.31
2022-11-17T03:25:10.854Z,97068.69
2022-11-17T03:27:41.360Z,97059.84
2022-11-17T03:30:13.397Z,97061.53
2022-11-17T03:32:50.874Z,97060.34
2022-11-17T03:35:25.734Z,97061.38
2022-11-17T03:38:01.860Z,97053.38
2022-11-17T03:40:31.831Z,97042.13
2022-11-17T03:43:36.033Z,97043.13
2022-11-17T03:46:10.774Z,97038.38
2022-11-17T03:48:51.506Z,97032.44
2022-11-17T03:51:26.266Z,97023.09
2022-11-17T03:54:22.341Z,97022.03
2022-11-17T03:57:23.974Z,97008.63
2022-11-17T03:59:59.575Z,97014.91
2022-11-17T04:02:32.478Z,97007.28
2022-11-17T04:05:01.242Z,97008.44
2022-11-17T04:07:29.325Z,97004.66
2022-11-17T04:09:59.746Z,96996.00
2022-11-17T04:12:28.244Z,96997.22
2022-11-17T04:14:55.194Z,97005.38
2022-11-17T04:17:33.641Z,96994.31
2022-11-17T04:21:09.441Z,96996.72
2022-11-17T04:23:27.173Z,97004.72
2022-11-17T04:25:58.569Z,96996.91
2022-11-17T04:28:30.077Z,97001.16
2022-11-17T04:30:57.676Z,96988.72
2022-11-17T04:33:33.043Z,96984.31
2022-11-17T04:36:01.849Z,96982.78
2022-11-17T04:38:31.430Z,96985.50
2022-11-17T04:41:17.745Z,96990.28
2022-11-17T04:43:53.001Z,96979.22
2022-11-17T04:46:23.851Z,96972.59
2022-11-17T04:48:53.049Z,96971.22
2022-11-17T04:51:25.654Z,96970.03
2022-11-17T04:54:30.039Z,96958.50
2022-11-17T04:57:30.208Z,96970.03
2022-11-17T05:00:12.176Z,96960.19
2022-11-17T05:02:41.488Z,96948.97
2022-11-17T05:05:23.615Z,96947.75
2022-11-17T05:11:05.163Z,96959.53
2022-11-17T05:13:47.117Z,96962.22
2022-11-17T05:16:18.209Z,96961.56
2022-11-17T05:18:49.927Z,96966.28
2022-11-17T05:21:25.807Z,96973.72
2022-11-17T05:23:56.885Z,96972.72
2022-11-17T05:26:31.173Z,96967.22
2022-11-17T05:29:01.084Z,96969.97
2022-11-17T05:31:30.842Z,96974.91
2022-11-17T05:34:36.868Z,96971.97
2022-11-17T05:37:39.472Z,96969.31
2022-11-17T05:40:11.216Z,96954.34
2022-11-17T05:42:46.148Z,96967.44
2022-11-17T05:45:17.735Z,96962.97
2022-11-17T05:47:48.512Z,96953.97
2022-11-17T05:50:16.607Z,96970.28
2022-11-17T05:56:30.825Z,96966.56
2022-11-17T06:05:41.855Z,96960.97
2022-11-17T06:11:59.734Z,96975.22
2022-11-17T06:14:32.208Z,96964.84
2022-11-17T06:17:03.638Z,96976.41
2022-11-17T06:19:42.885Z,96980.88
2022-11-17T06:22:13.099Z,96992.09
2022-11-17T06:41:57.701Z,96984.25
2022-11-17T06:44:24.298Z,96995.16
2022-11-17T06:46:50.906Z,96994.81
2022-11-17T06:49:45.198Z,96998.72
2022-11-17T06:52:18.095Z,97002.16
2022-11-17T06:55:06.773Z,96992.06
2022-11-17T06:57:39.769Z,96986.81
2022-11-17T07:00:08.172Z,96984.44
2022-11-17T07:02:35.087Z,97009.09
2022-11-17T07:05:01.819Z,97000.91
2022-11-17T07:23:54.678Z,96998.34
2022-11-17T07:26:21.251Z,97007.63
2022-11-17T07:28:47.806Z,96994.09
2022-11-17T07:31:14.701Z,97012.53
2022-11-17T07:33:41.602Z,97001.44
2022-11-17T07:37:45.930Z,97013.50
2022-11-17T07:47:17.823Z,97023.56
2022-11-17T08:01:04.410Z,97028.63
2022-11-17T08:15:32.949Z,97101.13
2022-11-17T08:21:36.103Z,97107.19
2022-11-17T08:30:37.085Z,97126.81
2022-11-17T08:40:55.830Z,97112.41
2022-11-17T08:44:05.995Z,97120.97
2022-11-17T08:50:57.341Z,97123.66
2022-11-17T09:01:59.783Z,97123.63
2022-11-17T09:35:55.733Z,97146.88
2022-11-17T12:18:00.408Z,97272.03
2022-11-17T12:20:55.043Z,97276.53
2022-11-17T12:23:57.044Z,97288.13
2022-11-17T12:26:29.039Z,97281.38
2022-11-17T12:29:23.845Z,97290.44
2022-11-17T12:31:55.543Z,97290.13
2022-11-17T12:34:25.507Z,97286.53
2022-11-17T12:40:50.171Z,97287.41
2022-11-17T12:43:23.897Z,97298.41
2022-11-17T12:46:06.804Z,97300.75
2022-11-17T12:48:37.083Z,97304.97
2022-11-17T12:51:10.233Z,97298.78
2022-11-17T13:10:48.329Z,97313.72
2022-11-17T13:13:22.903Z,97304.25
2022-11-17T13:15:53.173Z,97310.09
2022-11-17T13:18:47.392Z,97304.53
2022-11-17T13:21:57.714Z,97310.78
2022-11-17T13:25:20.058Z,97298.28
2022-11-17T13:28:26.229Z,97313.06
2022-11-17T13:45:07.597Z,97306.84
2022-11-17T14:50:18.484Z,97345.59
2022-11-17T14:52:48.428Z,97335.41
2022-11-17T14:58:42.029Z,97343.03
2022-11-17T15:04:50.039Z,97355.88
2022-11-17T15:14:02.266Z,97358.75
2022-11-17T15:20:38.094Z,97352.34
2022-11-17T15:24:01.008Z,97364.78
2022-11-17T15:42:40.555Z,97359.94
2022-11-17T15:45:34.953Z,97367.81
2022-11-17T15:48:34.629Z,97373.19
2022-11-17T15:54:21.685Z,97389.78
2022-11-17T16:43:43.162Z,97438.75
2022-11-17T16:46:27.425Z,97432.94
2022-11-17T16:49:22.186Z,97442.72
2022-11-17T16:51:55.885Z,97440.13
2022-11-17T16:55:05.082Z,97438.22
2022-11-17T16:58:12.356Z,97439.63
2022-11-17T17:00:55.274Z,97444.59
2022-11-17T17:03:27.854Z,97430.22
2022-11-17T17:09:57.385Z,97448.09
2022-11-17T17:12:28.599Z,97447.78
2022-11-17T17:16:13.013Z,97444.22
2022-11-17T17:19:16.058Z,97457.69
2022-11-17T17:22:31.211Z,97457.75
2022-11-17T17:25:05.827Z,97456.94
2022-11-17T17:35:10.289Z,97468.84
2022-11-17T17:37:58.608Z,97472.28
2022-11-17T17:40:44.531Z,97465.78
2022-11-17T17:43:11.160Z,97464.59
2022-11-17T17:45:41.314Z,97477.34
2022-11-17T17:48:08.922Z,97463.69
2022-11-17T17:54:00.781Z,97494.84
2022-11-17T17:56:29.181Z,97494.84
2022-11-17T17:59:08.122Z,97495.00
2022-11-17T18:01:34.866Z,97500.81
2022-11-17T18:04:12.605Z,97505.38
2022-11-17T18:06:44.840Z,97500.09
2022-11-17T18:09:14.775Z,97505.91
2022-11-17T18:11:47.977Z,97505.00
2022-11-17T18:14:15.274Z,97500.88
2022-11-17T18:16:42.254Z,97504.44
2022-11-17T18:19:09.827Z,97516.84
2022-11-17T18:21:39.300Z,97516.34
2022-11-17T18:24:06.751Z,97518.66
2022-11-17T18:26:36.409Z,97519.13
2022-11-17T18:29:06.609Z,97517.09
2022-11-17T18:31:35.809Z,97506.78
2022-11-17T18:34:11.045Z,97510.84
2022-11-17T18:36:38.468Z,97514.22
2022-11-17T18:39:05.141Z,97524.94
2022-11-17T18:41:32.318Z,97530.59
2022-11-17T18:44:00.854Z,97541.47
2022-11-17T18:46:30.588Z,97530.44
2022-11-17T18:49:18.721Z,97536.03
2022-11-17T18:51:46.229Z,97531.22
2022-11-17T18:54:15.750Z,97543.88
2022-11-17T18:56:46.618Z,97525.72
2022-11-17T18:59:15.609Z,97530.25
2022-11-17T19:01:44.738Z,97544.19
2022-11-17T19:04:13.626Z,97549.63
2022-11-17T19:06:40.441Z,97546.59
2022-11-17T19:09:07.263Z,97544.78
2022-11-17T19:11:56.142Z,97543.16
2022-11-17T19:14:24.582Z,97557.78
2022-11-17T19:16:54.279Z,97553.50
2022-11-17T19:30:10.254Z,97577.63
2022-11-17T19:32:37.485Z,97579.97
2022-11-17T19:35:14.658Z,97568.03
2022-11-17T19:37:45.316Z,97589.16
2022-11-17T19:40:12.504Z,97562.66
2022-11-17T19:42:39.179Z,97590.50
2022-11-17T19:45:07.783Z,97597.03
2022-11-17T19:47:35.244Z,97592.38
2022-11-17T19:50:01.801Z,97602.41
2022-11-17T19:52:28.425Z,97606.19
2022-11-17T19:55:16.029Z,97618.19
2022-11-17T19:57:56.709Z,97611.41
2022-11-17T20:00:25.134Z,97624.06
2022-11-17T20:02:51.631Z,97632.00
2022-11-17T20:05:18.359Z,97636.66
2022-11-17T20:07:44.963Z,97637.75
2022-11-17T20:10:13.485Z,97632.75
2022-11-17T20:12:44.225Z,97634.66
2022-11-17T20:15:33.247Z,97641.72
2022-11-17T20:18:05.497Z,97644.31
2022-11-17T20:20:42.127Z,97637.31
2022-11-17T20:23:08.783Z,97625.72
2022-11-17T20:25:41.551Z,97654.28
2022-11-17T20:28:09.294Z,97661.19
2022-11-17T20:30:37.352Z,97660.16
2022-11-17T20:33:15.653Z,97652.31
2022-11-17T20:35:42.545Z,97654.28
2022-11-17T20:38:15.674Z,97664.91
2022-11-17T20:40:42.423Z,97658.94
2022-11-17T20:43:09.614Z,97651.78
2022-11-17T20:45:36.523Z,97654.41
2022-11-17T20:48:03.340Z,97664.69
2022-11-17T20:53:57.826Z,97658.22
2022-11-17T21:06:10.748Z,97679.47
2022-11-17T21:08:42.574Z,97666.69
2022-11-17T21:11:13.102Z,97677.50
2022-11-17T21:13:39.838Z,97682.78
2022-11-17T21:16:09.769Z,97681.00
2022-11-17T21:18:37.695Z,97699.84
2022-11-17T21:21:11.539Z,97706.53
2022-11-17T21:24:14.058Z,97697.00
2022-11-17T21:26:42.092Z,97711.44
2022-11-17T21:29:10.311Z,97701.84
2022-11-17T21:31:38.050Z,97710.19
2022-11-17T21:37:44.984Z,97709.63
2022-11-17T22:23:02.082Z,97730.75
2022-11-17T22:25:44.881Z,97730.06
2022-11-17T22:28:11.975Z,97736.38
2022-11-17T22:30:38.648Z,97735.75
2022-11-17T22:33:05.260Z,97735.63
2022-11-17T22:35:31.806Z,97743.34
2022-11-17T22:37:58.777Z,97743.25
2022-11-17T22:40:27.250Z,97756.09
2022-11-17T22:42:53.795Z,97752.66
2022-11-17T22:45:20.670Z,97764.81
2022-11-17T22:47:47.483Z,97766.56
2022-11-17T22:50:14.144Z,97766.00
2022-11-17T22:52:42.379Z,97761.13
2022-11-17T22:55:09.334Z,97770.94
2022-11-17T22:57:37.354Z,97771.66
2022-11-17T23:00:05.682Z,97770.50
2022-11-17T23:02:32.515Z,97770.66
2022-11-17T23:04:59.232Z,97775.50
2022-11-17T23:07:25.948Z,97777.81
2022-11-17T23:09:52.585Z,97777.63
2022-11-17T23:12:19.517Z,97784.22
2022-11-17T23:14:47.713Z,97782.81
2022-11-17T23:17:14.517Z,97784.97
2022-11-17T23:19:41.700Z,97783.00
2022-11-17T23:22:10.556Z,97773.38
2022-11-17T23:24:37.096Z,97776.84
2022-11-17T23:27:04.696Z,97779.44
2022-11-17T23:29:31.254Z,97778.44
2022-11-17T23:31:59.186Z,97782.81
2022-11-17T23:34:26.069Z,97784.81
2022-11-17T23:36:52.647Z,97783.50
2022-11-17T23:39:19.407Z,97781.16
2022-11-17T23:41:46.369Z,97791.81
2022-11-17T23:44:12.916Z,97781.72
2022-11-17T23:46:39.652Z,97794.47
2022-11-17T23:49:07.919Z,97790.75
2022-11-17T23:51:34.820Z,97804.72
2022-11-17T23:54:02.596Z,97802.72
2022-11-17T23:56:32.020Z,97804.63
2022-11-17T23:59:00.126Z,97801.69
